Terminal Aerodrome Forecast
Issued by NWS

Home | Current Version | Previous Version | Text Only | Print | Product List | Glossary On
Versions: 1 2 3 4 5 6 7 8 9 10 11 12 13 14 15
000
FTAK31 PANC 270541
TAFATK
TAF
PATK 270541Z 2706/2806 VRB06KT P6SM VCSH BKN080
     FM270900 VRB03KT P6SM SCT060 BKN100
     FM272100 VRB03KT P6SM VCSH BKN060
     FM280200 VRB03KT P6SM VCTS BKN060CB=

USA.gov is the U.S. government's official web portal to all federal, state and local government web resources and services.